Time;durP1;ratioP1;P1;durP2;ratioP2;P2;SDS_P1;SDS_P2;PMS_P1;PMS_P2;Temp;Humidity;BMP_temperature;BMP_pressure;BME280_temperature;BME280_humidity;BME280_pressure;Samples;Min_cycle;Max_cycle;Signal;HPM_P1;HPM_P2
2023/03/12 12:05:19;;;;;;;28.40;14.13;;;8.00;99.90;;;;;;5069264;28;20317;-63
2023/03/12 12:08:02;;;;;;;36.85;17.70;;;8.00;99.90;;;;;;5046902;28;20040;-64
2023/03/12 12:10:34;;;;;;;35.28;16.45;;;8.20;99.90;;;;;;5046648;28;20021;-64
2023/03/12 12:13:14;;;;;;;;;;;8.40;99.90;;;;;;5030140;28;20026;-64
2023/03/12 12:16:17;;;;;;;35.05;14.95;;;8.60;99.90;;;;;;5061154;28;19905;-64
2023/03/12 12:18:50;;;;;;;32.45;15.02;;;8.80;99.90;;;;;;5029822;28;20026;-64
2023/03/12 12:21:37;;;;;;;28.65;14.13;;;8.90;99.90;;;;;;5029874;28;20022;-64
2023/03/12 12:24:21;;;;;;;28.83;14.20;;;9.00;99.90;;;;;;5032124;28;20033;-64
2023/03/12 12:27:10;;;;;;;30.70;14.68;;;9.10;99.90;;;;;;5038089;28;20393;-64
2023/03/12 12:29:48;;;;;;;32.88;13.18;;;9.30;99.90;;;;;;5049021;28;20022;-64
2023/03/12 12:32:31;;;;;;;26.20;13.90;;;9.50;99.90;;;;;;5032503;28;20026;-64
2023/03/12 12:35:26;;;;;;;26.08;14.23;;;9.50;99.90;;;;;;5028026;28;20061;-64
2023/03/12 12:38:16;;;;;;;29.15;12.55;;;9.50;99.90;;;;;;5015248;28;20048;-65
2023/03/12 12:40:58;;;;;;;25.63;12.70;;;9.60;99.90;;;;;;5030383;28;20056;-64
2023/03/12 12:43:48;;;;;;;23.23;11.48;;;9.70;99.90;;;;;;5039969;28;20030;-64
2023/03/12 12:46:17;;;;;;;21.67;10.38;;;9.80;99.90;;;;;;5030124;28;20108;-65
2023/03/12 12:48:59;;;;;;;25.13;10.13;;;9.80;99.90;;;;;;5040338;28;20390;-64
2023/03/12 12:51:31;;;;;;;22.75;9.63;;;9.80;99.90;;;;;;5045379;28;20017;-64
2023/03/12 12:54:12;;;;;;;22.27;9.77;;;9.80;99.90;;;;;;5048694;28;20068;-64
2023/03/12 12:56:53;;;;;;;26.23;9.20;;;9.80;99.90;;;;;;5039091;28;20036;-64
2023/03/12 12:59:42;;;;;;;23.80;8.75;;;9.80;99.90;;;;;;5029151;28;20032;-65
2023/03/12 13:02:21;;;;;;;22.73;9.02;;;9.80;99.90;;;;;;5034533;28;20112;-64
2023/03/12 13:04:48;;;;;;;26.55;8.70;;;9.90;99.90;;;;;;5029584;28;20406;-64
2023/03/12 13:07:20;;;;;;;21.02;8.95;;;9.80;99.90;;;;;;5033517;28;20014;-65
2023/03/12 13:09:51;;;;;;;26.98;9.43;;;9.80;99.90;;;;;;5028391;28;20026;-64
2023/03/12 13:12:31;;;;;;;22.67;8.00;;;9.80;99.90;;;;;;5026632;28;20045;-65
2023/03/12 13:14:59;;;;;;;19.67;8.25;;;9.90;99.90;;;;;;5021992;28;20026;-65
2023/03/12 13:17:34;;;;;;;15.77;7.05;;;10.00;99.90;;;;;;5033614;28;20104;-65
2023/03/12 13:20:12;;;;;;;21.60;8.32;;;10.10;99.90;;;;;;5023507;28;20041;-64
2023/03/12 13:23:22;;;;;;;20.52;7.32;;;10.10;99.90;;;;;;5034806;28;20017;-64
2023/03/12 13:26:09;;;;;;;19.38;6.88;;;10.20;99.90;;;;;;5013984;28;20065;-64
2023/03/12 13:28:58;;;;;;;22.67;6.28;;;10.30;99.90;;;;;;5033944;28;20039;-65
2023/03/12 13:31:26;;;;;;;23.75;7.03;;;10.30;99.90;;;;;;5033091;28;20022;-65
2023/03/12 13:34:15;;;;;;;22.10;6.93;;;10.30;99.90;;;;;;5033966;28;20029;-65
2023/03/12 13:36:44;;;;;;;18.80;6.75;;;10.20;99.90;;;;;;4995716;28;20040;-65
2023/03/12 13:39:16;;;;;;;21.13;6.60;;;10.10;99.90;;;;;;5027734;28;20149;-64
2023/03/12 13:41:44;;;;;;;25.80;7.95;;;10.10;99.90;;;;;;5014126;28;20439;-65
2023/03/12 13:44:22;;;;;;;29.95;7.07;;;10.10;99.90;;;;;;5023291;28;20525;-64
2023/03/12 13:46:57;;;;;;;23.70;6.75;;;10.10;99.90;;;;;;5037315;28;20022;-65
2023/03/12 13:49:23;;;;;;;30.90;7.90;;;10.20;99.90;;;;;;5028811;28;20017;-65
2023/03/12 13:52:07;;;;;;;31.25;8.02;;;10.30;99.90;;;;;;5013033;28;20053;-65
2023/03/12 13:54:40;;;;;;;29.00;6.75;;;10.20;99.90;;;;;;5013723;28;20036;-65
2023/03/12 13:57:12;;;;;;;23.38;5.65;;;10.30;99.90;;;;;;5014270;28;20021;-64
2023/03/12 13:59:43;;;;;;;19.48;5.25;;;10.40;99.90;;;;;;5014529;28;20038;-65
2023/03/12 14:02:21;;;;;;;20.15;6.10;;;10.40;99.90;;;;;;5012599;28;20014;-65
2023/03/12 14:04:47;;;;;;;27.83;6.47;;;10.50;99.90;;;;;;4992749;28;20050;-63
2023/03/12 14:07:48;;;;;;;18.02;4.88;;;10.60;99.90;;;;;;4993505;28;20160;-64
2023/03/12 14:10:37;;;;;;;24.75;4.68;;;10.60;99.90;;;;;;4994429;28;20019;-66
2023/03/12 14:13:11;;;;;;;19.52;5.03;;;10.60;99.90;;;;;;4992799;28;20032;-65
2023/03/12 14:15:49;;;;;;;22.60;4.75;;;10.70;99.90;;;;;;4993728;28;20026;-66
2023/03/12 14:18:20;;;;;;;15.95;3.72;;;10.80;99.90;;;;;;4994229;28;20034;-66
2023/03/12 14:20:54;;;;;;;19.95;5.75;;;10.90;99.90;;;;;;4994031;28;20026;-66
2023/03/12 14:23:21;;;;;;;21.58;4.25;;;11.10;99.90;;;;;;4993692;28;20045;-65
2023/03/12 14:25:48;;;;;;;20.20;4.47;;;11.30;99.90;;;;;;4993544;28;20029;-66
2023/03/12 14:28:20;;;;;;;24.20;4.65;;;11.40;99.90;;;;;;4993193;28;20026;-65
2023/03/12 14:31:06;;;;;;;24.90;5.22;;;11.50;99.90;;;;;;4993921;28;20058;-66
2023/03/12 14:33:45;;;;;;;20.50;4.13;;;11.50;99.90;;;;;;4994004;28;20030;-65
2023/03/12 14:36:15;;;;;;;21.73;5.72;;;11.60;99.90;;;;;;4993202;28;20027;-67
2023/03/12 14:38:46;;;;;;;28.50;4.53;;;11.60;99.90;;;;;;4993814;28;20027;-63
2023/03/12 14:41:20;;;;;;;17.10;3.88;;;11.70;99.90;;;;;;4993905;28;20033;-64
2023/03/12 14:43:50;;;;;;;14.40;3.75;;;11.70;99.90;;;;;;4992265;28;20035;-62
2023/03/12 14:46:23;;;;;;;17.30;3.80;;;11.80;99.90;;;;;;5005976;28;20033;-63
2023/03/12 14:48:51;;;;;;;17.00;4.07;;;11.80;99.90;;;;;;4995620;28;20057;-63
2023/03/12 14:51:25;;;;;;;15.93;4.53;;;11.80;99.90;;;;;;4997239;28;20022;-63
2023/03/12 14:53:52;;;;;;;23.83;4.30;;;11.80;99.90;;;;;;5012813;28;20021;-64
2023/03/12 14:56:33;;;;;;;15.55;3.78;;;11.80;99.90;;;;;;5012691;28;20018;-63
2023/03/12 14:59:18;;;;;;;16.70;5.15;;;11.70;99.90;;;;;;5011820;28;20026;-63
2023/03/12 15:01:44;;;;;;;16.30;2.88;;;11.70;99.90;;;;;;5012701;28;20049;-64
2023/03/12 15:04:18;;;;;;;17.50;4.40;;;11.70;99.90;;;;;;5041940;28;20136;-65
2023/03/12 15:06:47;;;;;;;18.88;3.40;;;11.60;99.90;;;;;;5052631;28;20442;-63
2023/03/12 15:09:25;;;;;;;19.05;4.13;;;11.60;99.90;;;;;;5052964;28;20059;-63
2023/03/12 15:12:03;;;;;;;15.20;3.45;;;11.60;99.90;;;;;;5051586;28;20032;-63
2023/03/12 15:14:38;;;;;;;15.05;3.28;;;11.60;99.90;;;;;;5050863;28;20131;-63
2023/03/12 15:17:05;;;;;;;18.42;3.80;;;11.70;99.90;;;;;;5041599;28;20032;-64
2023/03/12 15:19:35;;;;;;;18.42;3.60;;;11.70;99.90;;;;;;5025430;28;20293;-65
2023/03/12 15:22:02;;;;;;;14.45;3.00;;;11.60;99.90;;;;;;5033414;28;20024;-63
2023/03/12 15:24:36;;;;;;;18.25;3.90;;;11.60;99.90;;;;;;5032882;28;20044;-64
2023/03/12 15:27:41;;;;;;;24.38;5.72;;;11.60;99.90;;;;;;5022544;28;20029;-63
2023/03/12 15:30:26;;;;;;;17.25;3.65;;;11.60;99.90;;;;;;4957696;28;20031;-64
2023/03/12 15:33:25;;;;;;;13.68;3.53;;;11.60;99.90;;;;;;4945074;28;20123;-63
2023/03/12 15:36:21;;;;;;;17.15;3.60;;;11.60;99.90;;;;;;4997850;28;20037;-63
2023/03/12 15:38:58;;;;;;;11.57;2.67;;;11.60;99.90;;;;;;5028185;28;20148;-64
2023/03/12 15:41:51;;;;;;;12.52;3.22;;;11.50;99.90;;;;;;5030013;28;20014;-63
2023/03/12 15:44:23;;;;;;;12.02;3.72;;;11.60;99.90;;;;;;5025560;28;20053;-63
2023/03/12 15:46:53;;;;;;;19.13;3.53;;;11.70;99.90;;;;;;5031391;28;20092;-64
2023/03/12 15:49:23;;;;;;;17.73;2.67;;;11.70;99.90;;;;;;5049748;28;20099;-63
2023/03/12 15:52:02;;;;;;;14.13;3.33;;;11.70;99.90;;;;;;5049707;28;20588;-64
2023/03/12 15:54:29;;;;;;;18.55;3.35;;;11.70;99.90;;;;;;5042850;28;20041;-63
2023/03/12 15:57:21;;;;;;;18.05;4.22;;;11.60;99.90;;;;;;5028430;28;20033;-63
2023/03/12 16:00:10;;;;;;;17.65;4.18;;;11.60;99.90;;;;;;5029555;28;20033;-64
2023/03/12 16:02:45;;;;;;;14.02;3.35;;;11.60;99.90;;;;;;5035881;28;20021;-64
2023/03/12 16:05:11;;;;;;;17.63;4.18;;;11.50;99.90;;;;;;5049346;28;20025;-64
2023/03/12 16:07:37;;;;;;;12.07;3.13;;;11.50;99.90;;;;;;5039981;28;20037;-62
2023/03/12 16:10:04;;;;;;;21.30;3.80;;;11.50;99.90;;;;;;5013658;28;20073;-63
2023/03/12 16:12:29;;;;;;;14.32;3.13;;;11.50;99.90;;;;;;5017248;28;20535;-63
2023/03/12 16:14:55;;;;;;;15.48;3.55;;;11.50;99.90;;;;;;5038027;28;20029;-63
2023/03/12 16:17:22;;;;;;;14.70;3.75;;;11.40;99.90;;;;;;5035170;28;20017;-63
2023/03/12 16:19:48;;;;;;;17.95;3.42;;;11.40;99.90;;;;;;5030915;28;20580;-63
2023/03/12 16:22:14;;;;;;;12.20;3.13;;;11.30;99.90;;;;;;5029152;28;20021;-64
2023/03/12 16:24:39;;;;;;;16.60;3.20;;;11.30;99.90;;;;;;5029653;28;20036;-64
2023/03/12 16:27:08;;;;;;;18.25;3.40;;;11.30;99.90;;;;;;5029193;28;20033;-63
2023/03/12 16:29:36;;;;;;;12.02;3.30;;;11.20;99.90;;;;;;5027633;28;20091;-63
2023/03/12 16:32:13;;;;;;;17.75;3.67;;;11.20;99.90;;;;;;5015966;28;20048;-64
2023/03/12 16:34:38;;;;;;;13.45;2.78;;;11.10;99.90;;;;;;5043329;28;20021;-63
2023/03/12 16:37:04;;;;;;;19.92;4.20;;;11.10;99.90;;;;;;5013128;28;20025;-63
2023/03/12 16:39:32;;;;;;;14.23;3.17;;;11.10;99.90;;;;;;5040096;28;20394;-64
2023/03/12 16:41:59;;;;;;;19.25;3.65;;;11.00;99.90;;;;;;5043420;28;20036;-64
2023/03/12 16:44:28;;;;;;;21.13;3.00;;;11.00;99.90;;;;;;5016290;28;20029;-63
2023/03/12 16:46:53;;;;;;;17.25;3.10;;;11.00;99.90;;;;;;5050665;28;20045;-65
2023/03/12 16:49:19;;;;;;;14.80;3.33;;;10.90;99.90;;;;;;5043278;28;20049;-64
2023/03/12 16:51:45;;;;;;;15.95;3.45;;;10.90;99.90;;;;;;5023044;28;20028;-63
2023/03/12 16:54:11;;;;;;;16.20;3.70;;;10.90;99.90;;;;;;5042588;28;20103;-64
2023/03/12 16:56:40;;;;;;;17.55;3.22;;;10.90;99.90;;;;;;5030754;28;20473;-63
2023/03/12 16:59:16;;;;;;;15.05;3.63;;;10.90;99.90;;;;;;5046800;28;20468;-64
2023/03/12 17:01:41;;;;;;;15.95;3.47;;;10.80;99.90;;;;;;5034819;28;20017;-63
2023/03/12 17:04:09;;;;;;;14.75;3.80;;;10.70;99.90;;;;;;5033841;28;20445;-63
2023/03/12 17:06:38;;;;;;;19.33;3.75;;;10.70;99.90;;;;;;5018104;28;20032;-63
2023/03/12 17:09:04;;;;;;;18.00;3.15;;;10.70;99.90;;;;;;5040097;28;20500;-64
2023/03/12 17:11:34;;;;;;;16.83;3.70;;;10.70;99.90;;;;;;5036183;28;20026;-64
2023/03/12 17:14:02;;;;;;;13.20;3.17;;;10.70;99.90;;;;;;5033687;28;20485;-64
2023/03/12 17:16:28;;;;;;;17.98;3.53;;;10.60;99.90;;;;;;5035029;28;20389;-64
2023/03/12 17:18:54;;;;;;;22.08;3.67;;;10.60;99.90;;;;;;5020117;28;20040;-63
2023/03/12 17:21:20;;;;;;;23.48;3.95;;;10.60;99.90;;;;;;5034587;28;20021;-64
2023/03/12 17:23:49;;;;;;;18.25;3.42;;;10.60;99.90;;;;;;5033773;28;20038;-62
2023/03/12 17:26:15;;;;;;;27.33;4.75;;;10.60;99.90;;;;;;5033278;28;20497;-62
2023/03/12 17:28:42;;;;;;;15.27;3.38;;;10.60;99.90;;;;;;5016276;28;20875;-62
2023/03/12 17:31:08;;;;;;;17.63;3.90;;;10.60;99.90;;;;;;5033705;28;20044;-62
2023/03/12 17:33:34;;;;;;;15.95;3.85;;;10.50;99.90;;;;;;5016392;28;20014;-62
2023/03/12 17:36:02;;;;;;;20.20;3.58;;;10.50;99.90;;;;;;5033853;28;20025;-64
2023/03/12 17:38:29;;;;;;;18.40;3.97;;;10.40;99.90;;;;;;5041499;28;20025;-62
2023/03/12 17:40:56;;;;;;;16.88;3.40;;;10.50;99.90;;;;;;5033344;28;20162;-62
2023/03/12 17:43:22;;;;;;;17.30;3.92;;;10.40;99.90;;;;;;5033994;28;20034;-63
2023/03/12 17:45:49;;;;;;;17.55;3.25;;;10.40;99.90;;;;;;5033125;28;20087;-64
2023/03/12 17:48:15;;;;;;;19.67;4.00;;;10.40;99.90;;;;;;5015977;28;20021;-64
2023/03/12 17:50:42;;;;;;;18.25;3.55;;;10.40;99.90;;;;;;5031314;28;20034;-65
2023/03/12 17:53:08;;;;;;;18.25;3.92;;;10.40;99.90;;;;;;5031665;28;20550;-63
2023/03/12 17:55:35;;;;;;;19.98;4.20;;;10.30;99.90;;;;;;5035248;28;20033;-62
2023/03/12 17:58:02;;;;;;;14.57;4.18;;;10.30;99.90;;;;;;5052567;28;20083;-62
2023/03/12 18:00:28;;;;;;;17.13;3.90;;;10.30;99.90;;;;;;5038648;28;20029;-63
2023/03/12 18:02:54;;;;;;;16.92;3.45;;;10.30;99.90;;;;;;5043193;28;20049;-64
2023/03/12 18:05:20;;;;;;;15.80;3.20;;;10.30;99.90;;;;;;5053669;28;20033;-64
2023/03/12 18:07:47;;;;;;;22.23;4.50;;;10.30;99.90;;;;;;5030468;28;20032;-64
2023/03/12 18:10:13;;;;;;;18.27;3.85;;;10.30;99.90;;;;;;5020556;28;20029;-63
2023/03/12 18:12:39;;;;;;;17.67;2.88;;;10.30;99.90;;;;;;5023656;28;20112;-64
2023/03/12 18:15:11;;;;;;;19.25;3.92;;;10.30;99.90;;;;;;5034472;28;20021;-65
2023/03/12 18:17:36;;;;;;;19.67;4.10;;;10.30;99.90;;;;;;5037335;28;20060;-64
2023/03/12 18:20:11;;;;;;;16.17;3.40;;;10.30;99.90;;;;;;5015076;28;20061;-64
2023/03/12 18:22:37;;;;;;;13.30;3.67;;;10.30;99.90;;;;;;5032105;28;20022;-64
2023/03/12 18:25:04;;;;;;;16.08;3.63;;;10.30;99.90;;;;;;5017841;28;20458;-63
2023/03/12 18:27:30;;;;;;;15.30;3.30;;;10.30;99.90;;;;;;5038437;28;20044;-63
2023/03/12 18:29:55;;;;;;;18.08;4.25;;;10.30;99.90;;;;;;5040732;28;20485;-63
2023/03/12 18:32:21;;;;;;;20.88;4.07;;;10.30;99.90;;;;;;5033113;28;20424;-64
2023/03/12 18:34:47;;;;;;;15.20;3.72;;;10.30;99.90;;;;;;5014606;28;20032;-65
2023/03/12 18:37:13;;;;;;;22.38;4.30;;;10.30;99.90;;;;;;5015116;28;20032;-63
2023/03/12 18:39:39;;;;;;;21.60;3.85;;;10.30;99.90;;;;;;5033030;28;20053;-63
2023/03/12 18:42:05;;;;;;;20.35;4.00;;;10.30;99.90;;;;;;5017147;28;20079;-64
2023/03/12 18:44:30;;;;;;;16.45;3.40;;;10.30;99.90;;;;;;5019919;28;20060;-63
2023/03/12 18:46:56;;;;;;;25.42;4.57;;;10.30;99.90;;;;;;5043352;28;20026;-65
2023/03/12 18:49:21;;;;;;;17.02;3.47;;;10.30;99.90;;;;;;5032542;28;20068;-65
2023/03/12 18:51:52;;;;;;;20.95;4.10;;;10.30;99.90;;;;;;5033678;28;20029;-63
2023/03/12 18:54:18;;;;;;;21.38;4.40;;;10.30;99.90;;;;;;5053111;28;20031;-62
2023/03/12 18:56:43;;;;;;;21.25;3.75;;;10.30;99.90;;;;;;5049986;28;20029;-64
2023/03/12 18:59:13;;;;;;;22.27;3.47;;;10.20;99.90;;;;;;5035184;28;20033;-64
2023/03/12 19:01:42;;;;;;;21.38;3.60;;;10.20;99.90;;;;;;5052217;28;20397;-66
2023/03/12 19:04:09;;;;;;;18.08;4.50;;;10.20;99.90;;;;;;5052181;28;20128;-66
2023/03/12 19:06:35;;;;;;;16.33;3.70;;;10.20;99.90;;;;;;5052854;28;20439;-66
2023/03/12 19:09:01;;;;;;;20.75;3.95;;;10.20;99.90;;;;;;5032883;28;20119;-68
2023/03/12 19:11:26;;;;;;;23.73;4.32;;;10.20;99.90;;;;;;5032289;28;20021;-68
2023/03/12 19:13:52;;;;;;;19.50;3.50;;;10.20;99.90;;;;;;5033421;28;20021;-66
2023/03/12 19:16:22;;;;;;;12.23;3.05;;;10.20;99.90;;;;;;5034708;28;20112;-65
2023/03/12 19:18:49;;;;;;;14.48;3.88;;;10.20;99.90;;;;;;5051796;28;20124;-65
2023/03/12 19:21:16;;;;;;;19.52;4.15;;;10.20;99.90;;;;;;5034841;28;20023;-63
2023/03/12 19:23:43;;;;;;;21.08;4.68;;;10.10;99.90;;;;;;5033369;28;20029;-63
2023/03/12 19:26:08;;;;;;;22.30;4.32;;;10.10;99.90;;;;;;5047019;28;20029;-65
2023/03/12 19:28:35;;;;;;;23.02;4.78;;;10.00;99.90;;;;;;5032865;28;20021;-65
2023/03/12 19:31:06;;;;;;;24.30;4.88;;;10.00;99.90;;;;;;5014334;28;20306;-64
2023/03/12 19:33:34;;;;;;;;;;;10.00;99.90;;;;;;5053076;28;20102;-65
2023/03/12 19:36:00;;;;;;;15.10;4.03;;;10.00;99.90;;;;;;5051877;28;19901;-65
2023/03/12 19:38:27;;;;;;;23.08;4.45;;;9.90;99.90;;;;;;5033954;28;20119;-64
2023/03/12 19:40:54;;;;;;;21.10;4.63;;;9.90;99.90;;;;;;5050408;28;20025;-65
2023/03/12 19:43:20;;;;;;;24.10;5.03;;;9.90;99.90;;;;;;5051636;28;20037;-64
2023/03/12 19:45:46;;;;;;;18.67;4.13;;;9.90;99.90;;;;;;5051402;28;20100;-65
2023/03/12 19:48:13;;;;;;;17.65;4.10;;;9.80;99.90;;;;;;5034326;28;20017;-65
2023/03/12 19:50:39;;;;;;;19.92;5.05;;;9.90;99.90;;;;;;5034487;28;20036;-65
2023/03/12 19:53:05;;;;;;;24.35;4.15;;;9.80;99.90;;;;;;5028594;28;20017;-65
2023/03/12 19:55:31;;;;;;;23.83;4.43;;;9.80;99.90;;;;;;5036916;28;20060;-65
2023/03/12 19:57:57;;;;;;;21.27;4.43;;;9.80;99.90;;;;;;5031729;28;20025;-65
